createdAt,value
2019-01-30T00:01:14.664Z,100.00
2019-01-30T00:03:44.165Z,100.00
2019-01-30T00:06:13.295Z,100.00
2019-01-30T00:08:42.684Z,100.00
2019-01-30T00:11:12.184Z,100.00
2019-01-30T00:13:41.498Z,100.00
2019-01-30T00:16:10.828Z,100.00
2019-01-30T00:18:40.042Z,100.00
2019-01-30T00:21:09.367Z,100.00
2019-01-30T00:23:38.436Z,100.00
2019-01-30T00:26:07.677Z,100.00
2019-01-30T00:28:36.864Z,100.00
2019-01-30T00:31:06.062Z,100.00
2019-01-30T00:33:35.282Z,100.00
2019-01-30T00:36:04.663Z,100.00
2019-01-30T00:38:33.830Z,100.00
2019-01-30T00:41:02.974Z,100.00
2019-01-30T00:43:32.083Z,100.00
2019-01-30T00:46:01.203Z,100.00
2019-01-30T00:48:30.329Z,100.00
2019-01-30T00:50:59.456Z,100.00
2019-01-30T00:53:28.583Z,100.00
2019-01-30T00:55:57.681Z,100.00
2019-01-30T00:58:26.947Z,100.00
2019-01-30T01:00:56.034Z,100.00
2019-01-30T01:03:25.516Z,100.00
2019-01-30T01:05:54.663Z,100.00
2019-01-30T01:11:04.177Z,100.00
2019-01-30T01:13:33.271Z,100.00
2019-01-30T01:16:02.381Z,100.00
2019-01-30T01:18:31.532Z,100.00
2019-01-30T01:21:00.631Z,100.00
2019-01-30T01:23:29.752Z,100.00
2019-01-30T01:25:58.907Z,100.00
2019-01-30T01:28:28.000Z,100.00
2019-01-30T01:30:57.139Z,100.00
2019-01-30T01:33:28.401Z,100.00
2019-01-30T01:35:57.584Z,100.00
2019-01-30T01:38:26.991Z,100.00
2019-01-30T01:40:56.131Z,100.00
2019-01-30T01:43:25.251Z,100.00
2019-01-30T01:45:54.374Z,100.00
2019-01-30T01:48:23.477Z,100.00
2019-01-30T01:50:52.628Z,100.00
2019-01-30T01:53:21.728Z,100.00
2019-01-30T01:55:51.128Z,100.00
2019-01-30T01:58:20.325Z,100.00
2019-01-30T02:00:49.458Z,100.00
2019-01-30T02:03:18.622Z,100.00
2019-01-30T02:05:47.718Z,100.00
2019-01-30T02:08:16.862Z,100.00
2019-01-30T02:10:45.977Z,100.00
2019-01-30T02:13:15.078Z,100.00
2019-01-30T02:15:44.251Z,100.00
2019-01-30T02:18:13.377Z,100.00
2019-01-30T02:20:42.526Z,100.00
2019-01-30T02:23:11.664Z,100.00
2019-01-30T02:25:40.791Z,100.00
2019-01-30T02:28:09.946Z,100.00
2019-01-30T02:30:47.232Z,100.00
2019-01-30T02:33:09.904Z,100.00
2019-01-30T02:35:39.377Z,100.00
2019-01-30T02:38:08.460Z,100.00
2019-01-30T02:40:37.595Z,100.00
2019-01-30T02:43:06.712Z,100.00
2019-01-30T02:45:35.866Z,100.00
2019-01-30T02:48:05.318Z,100.00
2019-01-30T02:50:35.094Z,100.00
2019-01-30T02:53:04.480Z,100.00
2019-01-30T02:55:33.960Z,100.00
2019-01-30T02:58:03.101Z,100.00
2019-01-30T03:00:33.778Z,100.00
2019-01-30T03:03:02.955Z,100.00
2019-01-30T03:05:32.394Z,100.00
2019-01-30T03:08:01.532Z,100.00
2019-01-30T03:10:30.626Z,100.00
2019-01-30T03:12:59.725Z,100.00
2019-01-30T03:15:29.207Z,100.00
2019-01-30T03:17:58.328Z,100.00
2019-01-30T03:20:27.625Z,100.00
2019-01-30T03:22:57.049Z,100.00
2019-01-30T03:25:26.545Z,100.00
2019-01-30T03:27:55.653Z,100.00
2019-01-30T03:30:29.547Z,100.00
2019-01-30T03:32:59.019Z,100.00
2019-01-30T03:35:28.372Z,100.00
2019-01-30T03:37:57.499Z,100.00
2019-01-30T03:40:26.632Z,100.00
2019-01-30T03:42:55.752Z,100.00
2019-01-30T03:45:25.604Z,100.00
2019-01-30T03:47:54.683Z,100.00
2019-01-30T03:50:23.851Z,100.00
2019-01-30T03:52:52.939Z,100.00
2019-01-30T03:55:22.179Z,100.00
2019-01-30T03:57:51.538Z,100.00
2019-01-30T04:00:22.888Z,100.00
2019-01-30T04:02:52.529Z,100.00
2019-01-30T04:05:21.676Z,100.00
2019-01-30T04:07:50.816Z,100.00
2019-01-30T04:10:21.398Z,100.00
2019-01-30T04:12:50.606Z,100.00
2019-01-30T04:15:19.833Z,100.00
2019-01-30T04:17:49.259Z,100.00
2019-01-30T04:20:19.745Z,100.00
2019-01-30T04:22:48.904Z,100.00
2019-01-30T04:25:18.006Z,100.00
2019-01-30T04:27:47.137Z,100.00
2019-01-30T04:30:21.499Z,100.00
2019-01-30T04:32:50.643Z,100.00
2019-01-30T04:35:19.848Z,100.00
2019-01-30T04:37:48.984Z,100.00
2019-01-30T04:40:19.343Z,100.00
2019-01-30T04:42:48.763Z,100.00
2019-01-30T04:45:20.595Z,100.00
2019-01-30T04:47:49.686Z,100.00
2019-01-30T04:50:18.813Z,100.00
2019-01-30T04:52:48.627Z,100.00
2019-01-30T04:55:18.001Z,100.00
2019-01-30T04:57:47.120Z,100.00
2019-01-30T05:00:19.161Z,100.00
2019-01-30T05:02:48.741Z,100.00
2019-01-30T05:05:18.204Z,100.00
2019-01-30T05:07:47.305Z,100.00
2019-01-30T05:10:16.448Z,100.00
2019-01-30T05:12:45.550Z,100.00
2019-01-30T05:15:16.786Z,100.00
2019-01-30T05:17:46.069Z,100.00
2019-01-30T05:20:16.696Z,100.00
2019-01-30T05:22:46.052Z,100.00
2019-01-30T05:25:15.541Z,100.00
2019-01-30T05:27:44.680Z,100.00
2019-01-30T05:30:23.226Z,100.00
2019-01-30T05:32:52.358Z,100.00
2019-01-30T05:35:21.756Z,100.00
2019-01-30T05:37:51.497Z,100.00
2019-01-30T05:40:20.963Z,100.00
2019-01-30T05:42:50.081Z,100.00
2019-01-30T05:45:19.444Z,100.00
2019-01-30T05:47:48.581Z,100.00
2019-01-30T05:50:18.143Z,100.00
2019-01-30T05:52:47.328Z,100.00
2019-01-30T05:55:16.643Z,100.00
2019-01-30T05:57:46.072Z,100.00
2019-01-30T06:00:28.898Z,100.00
2019-01-30T06:02:58.080Z,100.00
2019-01-30T06:05:27.229Z,100.00
2019-01-30T06:07:56.342Z,100.00
2019-01-30T06:10:25.517Z,100.00
2019-01-30T06:12:54.669Z,100.00
2019-01-30T06:15:23.977Z,100.00
2019-01-30T06:17:53.108Z,100.00
2019-01-30T06:20:24.750Z,100.00
2019-01-30T06:22:54.163Z,100.00
2019-01-30T06:25:23.583Z,100.00
2019-01-30T06:27:52.735Z,100.00
2019-01-30T06:30:22.374Z,100.00
2019-01-30T06:32:51.511Z,100.00
2019-01-30T06:35:20.867Z,100.00
2019-01-30T06:37:50.074Z,100.00
2019-01-30T06:40:21.955Z,100.00
2019-01-30T06:42:51.092Z,100.00
2019-01-30T06:45:22.299Z,100.00
2019-01-30T06:48:06.411Z,100.00
2019-01-30T06:50:36.238Z,100.00
2019-01-30T06:53:05.478Z,100.00
2019-01-30T06:55:34.638Z,100.00
2019-01-30T06:58:04.732Z,100.00
2019-01-30T07:00:33.931Z,100.00
2019-01-30T07:03:03.229Z,100.00
2019-01-30T07:05:32.734Z,100.00
2019-01-30T07:08:01.884Z,100.00
2019-01-30T07:10:31.199Z,100.00
2019-01-30T07:13:00.390Z,100.00
2019-01-30T07:15:30.051Z,100.00
2019-01-30T07:17:59.997Z,100.00
2019-01-30T07:20:31.293Z,100.00
2019-01-30T07:23:00.619Z,100.00
2019-01-30T07:25:30.369Z,100.00
2019-01-30T07:28:02.140Z,100.00
2019-01-30T07:30:35.210Z,100.00
2019-01-30T07:33:04.668Z,100.00
2019-01-30T07:35:34.195Z,100.00
2019-01-30T07:38:03.372Z,100.00
2019-01-30T07:40:32.510Z,100.00
2019-01-30T07:43:01.946Z,100.00
2019-01-30T07:45:31.188Z,100.00
2019-01-30T07:48:02.094Z,100.00
2019-01-30T07:50:31.358Z,100.00
2019-01-30T07:53:00.751Z,100.00
2019-01-30T07:55:30.485Z,100.00
2019-01-30T07:58:00.203Z,100.00
2019-01-30T08:00:31.693Z,100.00
2019-01-30T08:03:01.229Z,100.00
2019-01-30T08:05:30.411Z,100.00
2019-01-30T08:07:59.937Z,100.00
2019-01-30T08:10:29.727Z,100.00
2019-01-30T08:12:58.960Z,100.00
2019-01-30T08:15:29.794Z,100.00
2019-01-30T08:17:58.955Z,100.00
2019-01-30T08:20:28.131Z,100.00
2019-01-30T08:22:57.619Z,100.00
2019-01-30T08:25:26.966Z,100.00
2019-01-30T08:27:56.810Z,100.00
2019-01-30T08:30:28.784Z,100.00
2019-01-30T08:33:04.723Z,100.00
2019-01-30T08:35:31.037Z,100.00
2019-01-30T08:38:00.249Z,100.00
2019-01-30T08:40:29.796Z,100.00
2019-01-30T08:42:59.044Z,100.00
2019-01-30T08:45:30.114Z,99.92
2019-01-30T08:47:59.310Z,99.67
2019-01-30T08:50:29.084Z,99.65
2019-01-30T08:52:58.689Z,99.20
2019-01-30T08:55:27.911Z,99.26
2019-01-30T08:57:57.188Z,99.39
2019-01-30T09:00:27.413Z,99.33
2019-01-30T09:02:56.565Z,98.94
2019-01-30T09:05:26.000Z,99.20
2019-01-30T09:07:55.215Z,99.66
2019-01-30T09:10:25.302Z,98.61
2019-01-30T09:12:54.703Z,99.05
2019-01-30T09:15:25.798Z,99.04
2019-01-30T09:17:55.429Z,99.37
2019-01-30T09:20:24.861Z,99.66
2019-01-30T09:22:55.965Z,99.91
2019-01-30T09:25:27.029Z,99.48
2019-01-30T09:27:58.815Z,99.04
2019-01-30T09:30:30.581Z,98.96
2019-01-30T09:32:59.697Z,98.43
2019-01-30T09:35:28.938Z,97.97
2019-01-30T09:37:58.217Z,98.41
2019-01-30T09:40:27.505Z,98.58
2019-01-30T09:42:59.506Z,98.13
2019-01-30T09:45:30.256Z,97.68
2019-01-30T09:47:59.622Z,98.03
2019-01-30T09:50:41.346Z,98.54
2019-01-30T09:53:10.779Z,98.15
2019-01-30T09:55:43.679Z,98.14
2019-01-30T09:58:17.030Z,98.29
2019-01-30T10:00:51.800Z,97.67
2019-01-30T10:03:21.140Z,97.13
2019-01-30T10:05:58.395Z,97.06
2019-01-30T10:08:34.146Z,96.82
2019-01-30T10:11:05.472Z,96.33
2019-01-30T10:13:38.966Z,96.25
2019-01-30T10:16:11.668Z,96.27
2019-01-30T10:18:48.913Z,96.05
2019-01-30T10:21:18.881Z,95.73
2019-01-30T10:24:57.746Z,95.43
2019-01-30T10:27:03.099Z,95.18
2019-01-30T10:30:07.965Z,95.54
2019-01-30T10:33:14.207Z,95.57
2019-01-30T11:05:01.232Z,90.97
2019-01-30T11:08:38.559Z,91.56
2019-01-30T11:11:23.431Z,91.33
2019-01-30T11:14:08.600Z,92.23
2019-01-30T11:16:42.459Z,92.92
2019-01-30T11:19:19.200Z,92.11
2019-01-30T11:21:59.688Z,89.54
2019-01-30T11:24:45.339Z,89.83
2019-01-30T11:27:19.159Z,87.99
2019-01-30T11:29:48.540Z,88.53
2019-01-30T11:32:24.320Z,88.65
2019-01-30T11:35:14.536Z,90.04
2019-01-30T11:37:40.149Z,88.66
2019-01-30T11:40:32.390Z,88.66
2019-01-30T11:43:03.154Z,88.81
2019-01-30T11:45:38.309Z,87.77
2019-01-30T11:48:15.226Z,88.86
2019-01-30T11:50:50.450Z,89.03
2019-01-30T11:53:21.244Z,88.43
2019-01-30T11:55:58.350Z,86.05
2019-01-30T11:58:48.493Z,87.84
2019-01-30T12:01:23.672Z,88.87
2019-01-30T12:03:55.160Z,89.92
2019-01-30T12:06:26.676Z,89.72
2019-01-30T12:09:05.862Z,88.61
2019-01-30T12:11:39.898Z,90.13
2019-01-30T12:14:34.106Z,91.54
2019-01-30T12:17:25.470Z,91.58
2019-01-30T12:19:56.059Z,90.13
2019-01-30T12:22:32.224Z,88.12
2019-01-30T12:25:08.785Z,89.67
2019-01-30T12:27:54.152Z,89.14
2019-01-30T12:30:50.321Z,90.02
2019-01-30T12:33:23.793Z,88.94
2019-01-30T12:35:52.938Z,89.42
2019-01-30T12:38:22.704Z,89.76
2019-01-30T12:40:51.858Z,89.78
2019-01-30T12:43:20.942Z,89.41
2019-01-30T12:45:50.087Z,89.57
2019-01-30T12:48:19.188Z,89.54
2019-01-30T12:50:48.485Z,89.20
2019-01-30T12:53:17.639Z,89.64
2019-01-30T12:55:46.771Z,88.80
2019-01-30T12:58:15.926Z,89.72
2019-01-30T13:00:46.101Z,89.49
2019-01-30T13:03:15.677Z,89.77
2019-01-30T13:05:46.228Z,88.66
2019-01-30T13:08:15.434Z,90.10
2019-01-30T13:10:44.685Z,90.39
2019-01-30T13:13:14.489Z,91.17
2019-01-30T13:15:43.722Z,92.08
2019-01-30T13:18:18.186Z,91.26
2019-01-30T13:20:44.095Z,91.27
2019-01-30T13:23:13.181Z,92.51
2019-01-30T13:25:42.296Z,91.25
2019-01-30T13:28:11.482Z,91.11
2019-01-30T13:30:43.758Z,92.24
2019-01-30T13:33:12.797Z,92.56
2019-01-30T13:35:41.922Z,91.97
2019-01-30T13:38:11.194Z,91.34
2019-01-30T13:40:42.781Z,91.38
2019-01-30T13:43:11.926Z,93.00
2019-01-30T13:45:41.077Z,94.02
2019-01-30T13:48:15.893Z,93.84
2019-01-30T13:50:45.423Z,93.97
2019-01-30T13:53:14.532Z,93.05
2019-01-30T13:55:43.745Z,93.54
2019-01-30T13:58:12.916Z,93.44
2019-01-30T14:00:42.083Z,93.36
2019-01-30T14:03:11.260Z,93.77
2019-01-30T14:05:40.384Z,92.73
2019-01-30T14:08:11.339Z,93.39
2019-01-30T14:10:40.769Z,93.24
2019-01-30T14:13:09.871Z,93.43
2019-01-30T14:15:39.056Z,92.39
2019-01-30T14:18:08.543Z,94.04
2019-01-30T14:20:37.610Z,94.01
2019-01-30T14:23:07.260Z,93.58
2019-01-30T14:25:36.484Z,93.39
2019-01-30T14:28:05.882Z,93.45
2019-01-30T14:30:37.373Z,94.27
2019-01-30T14:33:06.510Z,94.66
2019-01-30T14:35:38.718Z,95.52
2019-01-30T14:38:07.824Z,95.78
2019-01-30T14:40:36.916Z,95.01
2019-01-30T14:43:06.187Z,95.16
2019-01-30T14:45:35.300Z,94.65
2019-01-30T14:48:04.545Z,95.17
2019-01-30T14:50:33.866Z,95.41
2019-01-30T14:53:03.322Z,95.43
2019-01-30T14:55:32.467Z,95.70
2019-01-30T14:58:01.800Z,95.30
2019-01-30T15:00:32.141Z,95.31
2019-01-30T15:03:01.434Z,94.42
2019-01-30T15:05:31.143Z,94.25
2019-01-30T15:08:00.243Z,95.24
2019-01-30T15:10:30.170Z,95.87
2019-01-30T15:12:59.249Z,95.16
2019-01-30T15:15:30.191Z,94.94
2019-01-30T15:17:59.312Z,94.97
2019-01-30T15:20:33.165Z,95.86
2019-01-30T15:23:03.045Z,95.39
2019-01-30T15:25:32.640Z,95.74
2019-01-30T15:28:02.263Z,95.40
2019-01-30T15:30:36.566Z,95.87
2019-01-30T15:33:06.222Z,95.78
2019-01-30T15:35:35.359Z,95.63
2019-01-30T15:38:06.610Z,95.88
2019-01-30T15:40:35.775Z,95.97
2019-01-30T15:43:05.096Z,96.15
2019-01-30T15:45:34.412Z,95.96
2019-01-30T15:48:03.621Z,95.75
2019-01-30T15:50:33.851Z,95.90
2019-01-30T15:53:05.457Z,95.85
2019-01-30T15:55:34.571Z,94.95
2019-01-30T15:58:07.080Z,93.67
2019-01-30T16:00:47.666Z,93.48
2019-01-30T16:03:16.801Z,94.74
2019-01-30T16:05:45.898Z,94.82
2019-01-30T16:08:15.133Z,95.52
2019-01-30T16:10:44.220Z,94.96
2019-01-30T16:13:13.384Z,94.88
2019-01-30T16:15:45.865Z,94.13
2019-01-30T16:18:15.078Z,94.70
2019-01-30T16:20:44.175Z,94.36
2019-01-30T16:23:13.586Z,95.11
2019-01-30T16:25:42.727Z,95.16
2019-01-30T16:28:12.188Z,95.44
2019-01-30T16:30:42.343Z,95.54
2019-01-30T16:33:11.714Z,95.99
2019-01-30T16:35:40.858Z,95.94
2019-01-30T16:38:10.625Z,96.23
2019-01-30T16:40:39.794Z,96.33
2019-01-30T16:43:09.118Z,96.23
2019-01-30T16:45:38.626Z,96.19
2019-01-30T16:48:08.693Z,96.21
2019-01-30T16:50:37.857Z,96.70
2019-01-30T16:53:08.659Z,96.99
2019-01-30T16:55:38.160Z,96.63
2019-01-30T16:58:09.328Z,96.99
2019-01-30T17:00:38.608Z,96.78
2019-01-30T17:03:07.950Z,97.00
2019-01-30T17:05:37.305Z,96.78
2019-01-30T17:08:07.182Z,97.26
2019-01-30T17:10:36.375Z,97.00
2019-01-30T17:13:06.863Z,96.96
2019-01-30T17:15:36.404Z,97.18
2019-01-30T17:18:06.368Z,97.14
2019-01-30T17:20:36.788Z,96.99
2019-01-30T17:23:06.147Z,97.17
2019-01-30T17:25:36.069Z,97.10
2019-01-30T17:28:05.626Z,97.55
2019-01-30T17:30:58.120Z,97.16
2019-01-30T17:33:27.438Z,96.43
2019-01-30T17:35:56.834Z,95.13
2019-01-30T17:38:26.074Z,95.11
2019-01-30T17:40:55.322Z,95.11
2019-01-30T17:43:24.611Z,94.35
2019-01-30T17:45:53.907Z,94.61
2019-01-30T17:48:23.267Z,95.44
2019-01-30T17:50:52.542Z,95.47
2019-01-30T17:53:21.822Z,96.26
2019-01-30T17:55:51.400Z,96.39
2019-01-30T17:58:20.548Z,96.61
2019-01-30T18:00:58.875Z,96.88
2019-01-30T18:03:28.321Z,97.09
2019-01-30T18:05:57.619Z,96.15
2019-01-30T18:08:26.680Z,95.91
2019-01-30T18:10:55.818Z,96.52
2019-01-30T18:13:24.939Z,96.06
2019-01-30T18:15:54.097Z,95.90
2019-01-30T18:18:23.298Z,96.81
2019-01-30T18:20:52.544Z,97.34
2019-01-30T18:23:21.699Z,97.50
2019-01-30T18:25:50.855Z,98.05
2019-01-30T18:28:19.994Z,97.46
2019-01-30T18:30:49.090Z,97.96
2019-01-30T18:33:18.210Z,96.37
2019-01-30T18:35:47.315Z,96.49
2019-01-30T18:38:16.677Z,95.87
2019-01-30T18:40:45.814Z,96.26
2019-01-30T18:43:15.094Z,96.01
2019-01-30T18:45:44.219Z,96.78
2019-01-30T18:48:13.466Z,96.74
2019-01-30T18:50:45.608Z,96.47
2019-01-30T18:53:13.934Z,96.36
2019-01-30T18:55:43.066Z,96.81
2019-01-30T18:58:12.217Z,97.32
2019-01-30T19:00:44.028Z,96.93
2019-01-30T19:03:15.533Z,97.86
2019-01-30T19:05:44.820Z,98.04
2019-01-30T19:08:13.932Z,97.82
2019-01-30T19:10:43.249Z,97.68
2019-01-30T19:13:13.090Z,97.47
2019-01-30T19:15:42.425Z,97.74
2019-01-30T19:18:14.106Z,97.19
2019-01-30T19:20:45.595Z,97.63
2019-01-30T19:23:14.721Z,98.09
2019-01-30T19:25:43.999Z,98.43
2019-01-30T19:28:16.113Z,98.45
2019-01-30T19:30:45.214Z,98.55
2019-01-30T19:33:14.822Z,98.27
2019-01-30T19:35:44.058Z,98.80
2019-01-30T19:38:13.358Z,99.18
2019-01-30T19:40:45.259Z,99.37
2019-01-30T19:43:14.513Z,99.39
2019-01-30T19:45:43.645Z,99.68
2019-01-30T19:48:13.343Z,99.92
2019-01-30T19:50:42.582Z,99.76
2019-01-30T19:53:11.673Z,99.47
2019-01-30T19:55:40.797Z,99.31
2019-01-30T19:58:12.147Z,99.28
2019-01-30T20:00:46.112Z,99.26
2019-01-30T20:03:21.101Z,99.14
2019-01-30T20:05:50.599Z,99.15
2019-01-30T20:08:20.171Z,99.26
2019-01-30T20:10:49.429Z,98.94
2019-01-30T20:13:18.740Z,98.87
2019-01-30T20:15:47.845Z,98.80
2019-01-30T20:18:17.097Z,98.92
2019-01-30T20:20:46.528Z,98.84
2019-01-30T20:23:17.456Z,98.71
2019-01-30T20:25:46.746Z,98.70
2019-01-30T20:28:16.227Z,98.91
2019-01-30T20:30:45.409Z,99.15
2019-01-30T20:33:14.930Z,99.34
2019-01-30T20:35:46.890Z,99.33
2019-01-30T20:38:15.980Z,99.34
2019-01-30T20:40:45.256Z,99.48
2019-01-30T20:43:14.855Z,99.69
2019-01-30T20:45:44.048Z,100.00
2019-01-30T20:48:13.433Z,100.00
2019-01-30T20:50:44.531Z,100.00
2019-01-30T20:53:17.926Z,100.00
2019-01-30T20:55:47.406Z,100.00
2019-01-30T20:58:16.777Z,100.00
2019-01-30T21:00:46.542Z,100.00
2019-01-30T21:03:17.407Z,100.00
2019-01-30T21:05:46.553Z,100.00
2019-01-30T21:08:17.893Z,100.00
2019-01-30T21:10:49.062Z,100.00
2019-01-30T21:13:19.030Z,100.00
2019-01-30T21:15:50.744Z,100.00
2019-01-30T21:18:21.346Z,100.00
2019-01-30T21:20:50.928Z,100.00
2019-01-30T21:23:20.044Z,100.00
2019-01-30T21:25:50.045Z,100.00
2019-01-30T21:28:19.291Z,100.00
2019-01-30T21:30:48.446Z,100.00
2019-01-30T21:33:17.558Z,100.00
2019-01-30T21:35:46.700Z,100.00
2019-01-30T21:38:15.841Z,100.00
2019-01-30T21:40:45.002Z,100.00
2019-01-30T21:43:14.150Z,100.00
2019-01-30T21:45:43.584Z,100.00
2019-01-30T21:48:12.669Z,100.00
2019-01-30T21:50:41.810Z,100.00
2019-01-30T21:53:10.902Z,100.00
2019-01-30T21:55:40.035Z,100.00
2019-01-30T21:58:09.379Z,100.00
2019-01-30T22:00:38.532Z,100.00
2019-01-30T22:03:07.639Z,100.00
2019-01-30T22:05:36.789Z,100.00
2019-01-30T22:08:06.167Z,100.00
2019-01-30T22:10:35.249Z,100.00
2019-01-30T22:13:04.810Z,99.89
2019-01-30T22:15:33.939Z,99.80
2019-01-30T22:18:03.093Z,99.34
2019-01-30T22:20:32.207Z,99.07
2019-01-30T22:23:01.361Z,99.09
2019-01-30T22:25:30.612Z,98.54
2019-01-30T22:27:59.774Z,97.39
2019-01-30T22:30:31.161Z,96.72
2019-01-30T22:33:00.529Z,96.54
2019-01-30T22:35:29.659Z,96.65
2019-01-30T22:37:58.878Z,96.75
2019-01-30T22:40:28.026Z,96.89
2019-01-30T22:42:57.473Z,96.60
2019-01-30T22:45:26.824Z,96.56
2019-01-30T22:47:55.898Z,96.25
2019-01-30T22:50:25.112Z,96.40
2019-01-30T22:52:54.237Z,96.39
2019-01-30T22:55:24.062Z,96.62
2019-01-30T22:57:53.214Z,96.50
2019-01-30T23:00:58.338Z,96.74
2019-01-30T23:03:53.299Z,96.40
2019-01-30T23:06:43.955Z,96.40
2019-01-30T23:10:09.470Z,96.58
2019-01-30T23:13:18.605Z,95.97
2019-01-30T23:16:03.674Z,95.60
2019-01-30T23:19:03.530Z,95.90
2019-01-30T23:21:39.559Z,96.04
2019-01-30T23:24:52.192Z,95.77
2019-01-30T23:27:30.611Z,96.12
2019-01-30T23:30:38.461Z,95.95
2019-01-30T23:33:38.004Z,95.88
2019-01-30T23:36:34.351Z,95.46
2019-01-30T23:39:59.648Z,96.89
2019-01-30T23:42:39.041Z,97.00
2019-01-30T23:45:39.879Z,97.32
2019-01-30T23:48:51.414Z,97.56
2019-01-30T23:51:43.246Z,95.87
2019-01-30T23:54:22.976Z,95.62
2019-01-30T23:57:21.875Z,96.27
